Nearby METAR Reports

 

PAEN - Kenai, Alaska, USA
Distance from station: ESE 2mi, 4km
Updated: Tue, 07-Feb-2023 3:16am AKST
Freezing fog, Overcast
Freezing fog, Overcast
 Wind from NNE
Wind: NNE 5 mph , 7 km/h
Temperature: 23°F , -5°C
Wind Chill: 17°F , -8°C
Dew Point: 21°F , -6°C
Humidity: 93%
Barometer: 29.36 inHg , 994.2 hPa
Summary: Freezing Fog
Clouds: Overcast
Visibility: 1/2 mile , 0.8 km
Cloud details: Overcast 200 ft
2023/02/07 12:16 PAEN 071216Z AUTO 02004KT 1/2SM FZFG VV002 M05/M06 A2936 RMK AO2 I1001 T10501056 TSNO
PASX - Soldotna, Alaska, USA
Distance from station: SE 12mi, 19km
Updated: Tue, 07-Feb-2023 2:56am AKST
Overcast
Overcast
 Wind from calm
Wind: Calm
Temperature: 12°F , -11°C
Dew Point: 10°F , -12°C
Humidity: 92%
Barometer: 29.38 inHg , 994.9 hPa
Clouds: Overcast
Visibility: 10 miles , 16 km
Cloud details: Overcast 200 ft
2023/02/07 11:56 PASX 071156Z AUTO 00000KT 10SM OVC002 M11/M12 A2938 RMK AO2 SLP955 60000 70003 T11111122 11017 21117 51016 FZRANO
 
PANC - Anchorage Intl, Alaska, USA
Distance from station: NE 59mi, 96km
Updated: Tue, 07-Feb-2023 2:53am AKST
Few Clouds
Few Clouds
 Wind from ESE
Wind: ESE 3 mph , 6 km/h
Temperature: 21°F , -6°C
Dew Point: 19°F , -7°C
Humidity: 93%
Barometer: 29.34 inHg , 993.6 hPa
Clouds: Few Clouds
Visibility: 10 miles , 16 km
Cloud details: Few Clouds 6000 ft
2023/02/07 11:53 PANC 071153Z 12003KT 10SM FEW060 M06/M07 A2934 RMK AO2 SLP940 4/029 70015 I1001 I6001 T10611067 11011 21067 51014
PALH - Anchorage/Lake H, Alaska, USA
Distance from station: NE 61mi, 99km
Updated: Tue, 07-Feb-2023 2:53am AKST
Clear
Clear
 Wind from NE
Wind: NE 5 mph , 7 km/h
Temperature: 23°F , -5°C
Wind Chill: 17°F , -8°C
Dew Point: 21°F , -6°C
Humidity: 93%
Barometer: 29.36 inHg , 994.2 hPa
Clouds: Clear
Visibility: 10 miles , 16 km
2023/02/07 11:53 PALH 071153Z AUTO 04004KT 10SM CLR M05/M06 A2936 RMK AO2 SLP942 70012 I1001 I6001 T10501061 11017 21061 51015 TSNO
 
PAHO - Homer, Alaska, USA
Distance from station: S 66mi, 106km
Updated: Tue, 07-Feb-2023 3:14am AKST
Light snow, Mist, Overcast
Light snow, Mist, Overcast
 Wind from NE
Wind: NE 6 mph , 9 km/h
Temperature: 30°F , -1°C
Wind Chill: 24°F , -4°C
Dew Point: 28°F , -2°C
Humidity: 93%
Barometer: 29.33 inHg , 993.2 hPa
Summary: Light snow, Mist
Clouds: Overcast
Visibility: 1 1/2 miles , 2.4 km
Cloud details: Overcast 2300 ft
2023/02/07 12:14 PAHO 071214Z AUTO 05005KT 1 1/2SM -SN BR OVC023 M01/M02 A2933 RMK AO2 P0000 T10061017 TSNO
PAMR - Anchorage/Merril, Alaska, USA
Distance from station: NE 66mi, 106km
Updated: Tue, 07-Feb-2023 2:53am AKST
Partly cloudy
Partly cloudy
 Wind from N
Wind: N 5 mph , 7 km/h
Temperature: 12°F , -11°C
Wind Chill: 4°F , -16°C
Dew Point: 9°F , -13°C
Humidity: 85%
Barometer: 29.35 inHg , 993.9 hPa
Clouds: Partly cloudy
Visibility: 10 miles , 16 km
Cloud details: Few Clouds 6000 ft
Partly cloudy 14000 ft
2023/02/07 11:53 PAMR 071153Z 35004KT 10SM FEW060 SCT140 M11/M13 A2935 RMK AO2 SLP942 70013 I1000 I6000 T11061133 11017 21122 51015
 
PAED - Elmendorf Afb, Alaska, USA
Distance from station: NE 69mi, 110km
Updated: Tue, 07-Feb-2023 2:55am AKST
Few Clouds
Few Clouds
 Wind from calm
Wind: Calm
Temperature: 19°F , -7°C
Dew Point: 18°F , -8°C
Humidity: 93%
Barometer: 29.34 inHg , 993.6 hPa
Clouds: Few Clouds
Visibility: 10 miles , 16 km
Cloud details: Few Clouds 13000 ft
2023/02/07 11:55 PAED 071155Z 00000KT 10SM FEW130 M07/M08 A2934 RMK AO2A SLP934 70007 4/022 T10731078 11011 21100 52014
PAWD - Seward, Alaska, USA
Distance from station: ESE 71mi, 115km
Updated: Tue, 07-Feb-2023 2:53am AKST
Mostly cloudy
Mostly cloudy
 Wind from NW
Wind: NW 5 mph , 7 km/h
Temperature: 28°F , -2°C
Wind Chill: 22°F , -6°C
Dew Point: 25°F , -4°C
Humidity: 86%
Barometer: 29.37 inHg , 994.6 hPa
Clouds: Mostly cloudy
Visibility: 10 miles , 16 km
Cloud details: Mostly cloudy 4600 ft
2023/02/07 11:53 PAWD 071153Z AUTO 31004KT 10SM BKN046 M02/M04 A2937 RMK AO2 SNE17 SLP945 P0000 60000 70053 I1000 I6000 T10171039 10006 21033 51010 TSNO
 
PASC - Deadhorse, Alaska, USA
Distance from station: ENE 670mi, 1078km
Updated: Tue, 07-Feb-2023 2:53am AKST
Overcast
Overcast
 Wind from SW
Wind: SW 13 mph , 20 km/h
Temperature: -29°F , -34°C
Wind Chill: -55°F , -48°C
Barometer: 29.76 inHg , 1007.8 hPa
Clouds: Overcast
Visibility: 10 miles , 16 km
Cloud details: Few Clouds 900 ft
Overcast 1500 ft
2023/02/07 11:53 PASC 071153Z 23011KT 10SM FEW009 OVC015 M34/ A2976 RMK AO2 SLP080 T1344 11344 21356 52010 $
PAAD - Point Thomson, Alaska, USA
Distance from station: ENE 680mi, 1094km
Updated: Tue, 07-Feb-2023 3:15am AKST
Overcast
Overcast
 Wind from WSW
Wind: WSW 15 mph , 24 km/h
Temperature: -31°F , -35°C
Wind Chill: -59°F , -51°C
Dew Point: -38°F , -39°C
Humidity: 67%
Barometer: 29.77 inHg , 1008.1 hPa
Clouds: Overcast
Visibility: 10 miles , 16 km
Cloud details: Overcast 2600 ft
2023/02/07 12:15 PAAD 071215Z AUTO 24013KT 10SM OVC026 M35/M39 A2977 RMK AO2 T13501390


kenaipeople.com website

Dans Automotive

Lower Peninsula Power Sports

Freddies RoadHouse

Alaska Weather Net